createdAt,value
2023-04-20T00:01:12.900Z,96103.50
2023-04-20T00:03:39.711Z,96094.69
2023-04-20T00:06:06.955Z,96100.06
2023-04-20T00:08:33.644Z,96084.00
2023-04-20T00:11:00.352Z,96088.28
2023-04-20T00:13:27.066Z,96089.63
2023-04-20T00:15:53.701Z,96087.78
2023-04-20T00:18:20.318Z,96073.34
2023-04-20T00:20:46.977Z,96073.88
2023-04-20T00:23:13.636Z,96064.53
2023-04-20T00:25:40.241Z,96068.53
2023-04-20T00:28:06.831Z,96061.03
2023-04-20T00:30:33.491Z,96057.31
2023-04-20T00:33:00.306Z,96052.47
2023-04-20T00:35:27.072Z,96053.03
2023-04-20T00:37:53.671Z,96052.53
2023-04-20T00:40:20.632Z,96046.09
2023-04-20T00:42:47.381Z,96054.63
2023-04-20T00:45:14.060Z,96055.97
2023-04-20T00:47:40.862Z,96054.63
2023-04-20T00:50:08.252Z,96052.53
2023-04-20T00:52:35.047Z,96044.53
2023-04-20T00:55:03.429Z,96034.34
2023-04-20T00:57:31.154Z,96036.22
2023-04-20T00:59:57.868Z,96037.06
2023-04-20T01:02:24.699Z,96028.00
2023-04-20T01:04:51.514Z,96033.34
2023-04-20T01:07:18.144Z,96024.28
2023-04-20T01:09:44.747Z,96017.84
2023-04-20T01:12:11.842Z,96023.19
2023-04-20T01:14:38.480Z,96024.53
2023-04-20T01:17:06.044Z,96024.00
2023-04-20T01:19:33.393Z,96024.00
2023-04-20T01:22:00.116Z,96026.41
2023-04-20T01:24:27.779Z,96019.75
2023-04-20T01:26:54.515Z,96021.41
2023-04-20T01:29:21.207Z,96020.13
2023-04-20T01:31:47.860Z,96016.91
2023-04-20T01:34:15.361Z,96019.81
2023-04-20T01:36:41.963Z,96011.56
2023-04-20T01:39:08.986Z,96008.38
2023-04-20T01:41:35.890Z,96010.50
2023-04-20T01:44:02.556Z,96012.66
2023-04-20T01:46:29.266Z,96003.31
2023-04-20T01:48:56.009Z,96009.44
2023-04-20T01:51:22.730Z,96011.03
2023-04-20T01:53:49.367Z,96005.44
2023-04-20T01:56:16.282Z,96000.91
2023-04-20T01:58:42.901Z,96006.72
2023-04-20T02:01:09.629Z,95997.69
2023-04-20T02:03:36.360Z,95997.66
2023-04-20T02:06:03.159Z,95988.78
2023-04-20T02:08:29.795Z,95990.59
2023-04-20T02:10:56.429Z,95975.34
2023-04-20T02:13:23.036Z,95978.81
2023-04-20T02:15:49.722Z,95975.03
2023-04-20T02:18:16.470Z,95977.66
2023-04-20T02:20:44.031Z,95981.91
2023-04-20T02:23:11.044Z,95981.94
2023-04-20T02:25:38.424Z,95986.69
2023-04-20T02:28:05.661Z,95980.06
2023-04-20T02:30:32.317Z,95974.94
2023-04-20T02:32:59.471Z,95975.47
2023-04-20T02:35:26.322Z,95967.50
2023-04-20T02:37:52.987Z,95976.97
2023-04-20T02:40:19.711Z,95974.34
2023-04-20T02:42:46.439Z,95972.53
2023-04-20T02:45:13.069Z,95968.59
2023-04-20T02:47:39.794Z,95963.28
2023-04-20T02:50:07.014Z,95961.44
2023-04-20T02:52:34.158Z,95959.00
2023-04-20T02:55:01.072Z,95965.44
2023-04-20T02:57:27.705Z,95955.69
2023-04-20T02:59:54.361Z,95952.72
2023-04-20T03:02:21.433Z,95940.97
2023-04-20T03:04:48.312Z,95953.31
2023-04-20T03:07:16.590Z,95940.72
2023-04-20T03:09:43.509Z,95942.59
2023-04-20T03:12:10.122Z,95946.81
2023-04-20T03:14:36.809Z,95945.72
2023-04-20T03:17:03.458Z,95947.78
2023-04-20T03:19:30.105Z,95947.75
2023-04-20T03:21:56.704Z,95952.28
2023-04-20T03:24:24.138Z,95945.59
2023-04-20T03:26:50.836Z,95948.28
2023-04-20T03:29:17.787Z,95953.16
2023-04-20T03:31:44.726Z,95948.34
2023-04-20T03:34:11.441Z,95946.75
2023-04-20T03:36:38.130Z,95957.44
2023-04-20T03:39:04.958Z,95955.84
2023-04-20T03:41:32.193Z,95955.84
2023-04-20T03:43:58.825Z,95954.53
2023-04-20T03:46:25.563Z,95958.97
2023-04-20T03:48:52.226Z,95949.38
2023-04-20T03:51:18.834Z,95949.09
2023-04-20T03:53:45.452Z,95948.88
2023-04-20T03:56:12.136Z,95939.22
2023-04-20T03:58:38.779Z,95925.97
2023-04-20T04:01:09.969Z,95925.78
2023-04-20T04:03:36.844Z,95920.47
2023-04-20T04:06:03.958Z,95916.69
2023-04-20T04:08:31.677Z,95930.22
2023-04-20T04:10:58.304Z,95923.03
2023-04-20T04:13:25.044Z,95926.81
2023-04-20T04:15:51.681Z,95932.22
2023-04-20T04:18:18.310Z,95929.53
2023-04-20T04:20:44.947Z,95924.69
2023-04-20T04:23:11.845Z,95925.81
2023-04-20T04:25:40.336Z,95926.47
2023-04-20T04:28:07.387Z,95932.34
2023-04-20T04:30:35.185Z,95923.81
2023-04-20T04:33:04.855Z,95926.41
2023-04-20T04:35:33.454Z,95926.88
2023-04-20T04:38:01.054Z,95933.91
2023-04-20T04:40:27.869Z,95925.91
2023-04-20T04:42:55.628Z,95934.44
2023-04-20T04:45:25.353Z,95932.59
2023-04-20T04:47:54.026Z,95926.47
2023-04-20T04:50:21.834Z,95919.00
2023-04-20T04:52:48.461Z,95926.97
2023-04-20T04:55:16.252Z,95920.66
2023-04-20T04:57:43.250Z,95932.59
2023-04-20T05:00:11.800Z,95932.63
2023-04-20T05:02:38.615Z,95933.34
2023-04-20T05:05:07.530Z,95939.22
2023-04-20T05:07:35.568Z,95937.28
2023-04-20T05:10:02.241Z,95938.13
2023-04-20T05:12:28.827Z,95937.09
2023-04-20T05:14:55.451Z,95939.78
2023-04-20T05:17:22.082Z,95933.94
2023-04-20T05:19:48.882Z,95936.88
2023-04-20T05:22:15.493Z,95936.63
2023-04-20T05:24:45.156Z,95941.69
2023-04-20T05:27:11.818Z,95937.66
2023-04-20T05:29:39.043Z,95936.63
2023-04-20T05:32:05.955Z,95935.34
2023-04-20T05:34:32.681Z,95929.63
2023-04-20T05:36:59.500Z,95941.56
2023-04-20T05:39:26.415Z,95936.84
2023-04-20T05:41:53.112Z,95935.25
2023-04-20T05:44:19.719Z,95942.16
2023-04-20T05:46:46.927Z,95932.88
2023-04-20T05:49:13.524Z,95941.09
2023-04-20T05:51:40.352Z,95942.66
2023-04-20T05:54:07.000Z,95937.63
2023-04-20T05:56:33.743Z,95936.84
2023-04-20T05:59:00.524Z,95944.81
2023-04-20T06:01:27.195Z,95943.78
2023-04-20T06:03:53.935Z,95941.09
2023-04-20T06:06:20.722Z,95943.97
2023-04-20T06:08:47.381Z,95938.19
2023-04-20T06:11:14.002Z,95945.38
2023-04-20T06:13:40.625Z,95940.84
2023-04-20T06:16:09.704Z,95942.66
2023-04-20T06:18:37.622Z,95941.88
2023-04-20T06:21:04.615Z,95931.47
2023-04-20T06:23:31.377Z,95937.88
2023-04-20T06:25:57.991Z,95935.22
2023-04-20T06:28:24.604Z,95934.69
2023-04-20T06:30:51.350Z,95926.72
2023-04-20T06:33:18.082Z,95931.75
2023-04-20T06:35:44.738Z,95927.22
2023-04-20T06:38:11.341Z,95925.41
2023-04-20T06:40:38.013Z,95916.84
2023-04-20T06:43:04.593Z,95907.56
2023-04-20T06:45:33.625Z,95909.66
2023-04-20T06:48:00.930Z,95892.66
2023-04-20T06:50:27.609Z,95892.66
2023-04-20T06:52:54.258Z,95896.88
2023-04-20T06:55:21.389Z,95886.84
2023-04-20T06:57:48.044Z,95890.06
2023-04-20T07:00:15.470Z,95888.72
2023-04-20T07:02:46.792Z,95892.72
2023-04-20T07:05:14.916Z,95889.00
2023-04-20T07:07:42.071Z,95884.22
2023-04-20T07:10:09.942Z,95883.44
2023-04-20T07:12:37.096Z,95875.97
2023-04-20T07:15:08.352Z,95880.50
2023-04-20T07:17:35.660Z,95874.63
2023-04-20T07:20:07.335Z,95871.72
2023-04-20T07:22:37.955Z,95867.22
2023-04-20T07:25:06.614Z,95869.34
2023-04-20T07:27:38.762Z,95872.56
2023-04-20T07:30:06.980Z,95870.41
2023-04-20T07:32:35.025Z,95859.00
2023-04-20T07:35:01.788Z,95859.25
2023-04-20T07:37:28.639Z,95855.53
2023-04-20T07:39:55.466Z,95858.72
2023-04-20T07:42:22.259Z,95865.66
2023-04-20T07:44:49.305Z,95858.97
2023-04-20T07:47:16.431Z,95868.28
2023-04-20T07:49:44.306Z,95861.84
2023-04-20T07:52:16.964Z,95858.63
2023-04-20T07:54:47.223Z,95853.28
2023-04-20T07:57:13.883Z,95854.34
2023-04-20T07:59:40.892Z,95861.22
2023-04-20T08:02:08.328Z,95851.13
2023-04-20T08:04:38.010Z,95850.59
2023-04-20T08:07:05.091Z,95853.47
2023-04-20T08:09:31.761Z,95844.66
2023-04-20T08:11:58.546Z,95843.34
2023-04-20T08:14:25.180Z,95847.84
2023-04-20T08:16:51.847Z,95833.34
2023-04-20T08:19:18.534Z,95837.28
2023-04-20T08:21:45.201Z,95841.81
2023-04-20T08:24:13.295Z,95842.31
2023-04-20T08:26:40.814Z,95841.19
2023-04-20T08:29:07.490Z,95847.47
2023-04-20T08:31:34.335Z,95847.22
2023-04-20T08:34:01.677Z,95832.59
2023-04-20T08:36:28.415Z,95830.16
2023-04-20T08:39:19.331Z,95829.16
2023-04-20T08:41:46.899Z,95834.00
2023-04-20T08:44:13.906Z,95825.25
2023-04-20T08:46:45.248Z,95823.41
2023-04-20T08:49:13.026Z,95826.38
2023-04-20T08:51:40.235Z,95826.28
2023-04-20T08:54:07.484Z,95825.44
2023-04-20T08:56:38.257Z,95819.66
2023-04-20T08:59:06.184Z,95811.31
2023-04-20T09:01:36.185Z,95819.84
2023-04-20T09:04:14.920Z,95817.47
2023-04-20T09:06:51.908Z,95817.69
2023-04-20T09:09:20.165Z,95812.47
2023-04-20T09:11:47.727Z,95814.72
2023-04-20T09:14:16.909Z,95827.75
2023-04-20T09:16:51.809Z,95823.53
2023-04-20T09:19:25.508Z,95817.69
2023-04-20T09:21:54.160Z,95814.84
2023-04-20T09:24:22.930Z,95810.03
2023-04-20T09:26:49.724Z,95811.56
2023-04-20T09:29:18.158Z,95804.50
2023-04-20T09:31:45.030Z,95805.97
2023-04-20T09:34:12.721Z,95800.75
2023-04-20T09:36:54.363Z,95801.84
2023-04-20T09:39:23.365Z,95799.25
2023-04-20T09:41:52.060Z,95803.13
2023-04-20T09:44:19.753Z,95800.38
2023-04-20T09:46:47.130Z,95801.63
2023-04-20T09:49:14.888Z,95794.56
2023-04-20T09:51:46.538Z,95796.09
2023-04-20T09:54:14.371Z,95792.81
2023-04-20T09:56:41.292Z,95787.03
2023-04-20T09:59:08.248Z,95785.22
2023-04-20T10:01:37.464Z,95794.19
2023-04-20T10:04:09.756Z,95798.34
2023-04-20T10:06:37.010Z,95793.31
2023-04-20T10:09:06.190Z,95802.19
2023-04-20T10:11:45.063Z,95794.00
2023-04-20T10:14:26.020Z,95802.63
2023-04-20T10:17:09.635Z,95805.13
2023-04-20T10:19:40.665Z,95797.38
2023-04-20T10:22:09.058Z,95801.31
2023-04-20T10:24:38.267Z,95803.88
2023-04-20T10:27:19.788Z,95798.25
2023-04-20T10:29:46.654Z,95793.81
2023-04-20T10:32:28.621Z,95783.34
2023-04-20T10:35:03.519Z,95784.84
2023-04-20T10:37:30.646Z,95779.88
2023-04-20T10:39:57.552Z,95778.91
2023-04-20T10:42:24.287Z,95775.81
2023-04-20T10:44:52.308Z,95766.69
2023-04-20T10:47:27.873Z,95757.75
2023-04-20T10:49:54.629Z,95754.47
2023-04-20T10:52:38.793Z,95752.88
2023-04-20T10:55:07.172Z,95748.97
2023-04-20T10:57:33.977Z,95750.47
2023-04-20T11:00:00.748Z,95745.38
2023-04-20T11:02:28.318Z,95743.38
2023-04-20T11:05:01.010Z,95746.97
2023-04-20T11:07:27.827Z,95734.97
2023-04-20T11:09:57.967Z,95741.44
2023-04-20T11:12:24.675Z,95741.66
2023-04-20T11:14:54.251Z,95741.06
2023-04-20T11:17:31.577Z,95737.28
2023-04-20T11:20:12.314Z,95728.25
2023-04-20T11:22:40.413Z,95736.50
2023-04-20T11:25:09.516Z,95738.47
2023-04-20T11:27:37.246Z,95739.19
2023-04-20T11:30:05.873Z,95738.41
2023-04-20T11:32:33.700Z,95734.00
2023-04-20T11:35:07.015Z,95726.56
2023-04-20T11:37:45.871Z,95733.22
2023-04-20T11:40:13.395Z,95744.22
2023-04-20T11:42:40.038Z,95740.25
2023-04-20T11:45:07.284Z,95744.72
2023-04-20T11:47:34.039Z,95740.06
2023-04-20T11:50:01.377Z,95741.97
2023-04-20T11:52:28.007Z,95740.66
2023-04-20T11:54:54.655Z,95737.50
2023-04-20T11:57:23.852Z,95735.50
2023-04-20T11:59:50.639Z,95738.16
2023-04-20T12:02:17.373Z,95722.78
2023-04-20T12:04:44.330Z,95728.34
2023-04-20T12:07:11.306Z,95723.56
2023-04-20T12:09:38.548Z,95717.59
2023-04-20T12:12:06.174Z,95718.78
2023-04-20T12:14:36.543Z,95721.16
2023-04-20T12:17:04.621Z,95708.28
2023-04-20T12:19:32.035Z,95713.78
2023-04-20T12:21:58.755Z,95710.75
2023-04-20T12:24:25.469Z,95718.69
2023-04-20T12:26:52.169Z,95703.25
2023-04-20T12:29:18.942Z,95711.31
2023-04-20T12:31:46.111Z,95706.84
2023-04-20T12:34:12.831Z,95702.84
2023-04-20T12:36:39.662Z,95696.22
2023-04-20T12:39:06.537Z,95700.25
2023-04-20T12:41:33.450Z,95697.00
2023-04-20T12:44:02.025Z,95691.34
2023-04-20T12:46:30.177Z,95692.47
2023-04-20T12:48:56.986Z,95686.50
2023-04-20T12:51:23.602Z,95682.84
2023-04-20T12:53:50.286Z,95681.28
2023-04-20T12:56:16.879Z,95686.50
2023-04-20T12:58:43.840Z,95671.47
2023-04-20T13:01:10.554Z,95666.50
2023-04-20T13:03:37.750Z,95667.25
2023-04-20T13:06:05.867Z,95663.56
2023-04-20T13:08:32.594Z,95666.56
2023-04-20T13:10:59.298Z,95651.41
2023-04-20T13:13:26.283Z,95653.56
2023-04-20T13:15:55.835Z,95651.59
2023-04-20T13:18:24.221Z,95646.28
2023-04-20T13:20:50.823Z,95638.72
2023-04-20T13:23:18.083Z,95638.38
2023-04-20T13:25:44.921Z,95640.94
2023-04-20T13:28:14.472Z,95633.72
2023-04-20T13:30:41.522Z,95640.03
2023-04-20T13:33:08.228Z,95637.56
2023-04-20T13:35:34.986Z,95629.06
2023-04-20T13:38:02.123Z,95634.94
2023-04-20T13:40:28.948Z,95628.63
2023-04-20T13:42:55.729Z,95623.63
2023-04-20T13:45:22.385Z,95616.97
2023-04-20T13:47:49.078Z,95606.91
2023-04-20T13:50:15.737Z,95612.63
2023-04-20T13:52:42.398Z,95607.06
2023-04-20T13:55:09.404Z,95596.78
2023-04-20T13:57:36.052Z,95595.50
2023-04-20T14:00:02.992Z,95594.97
2023-04-20T14:02:30.140Z,95588.03
2023-04-20T14:04:56.967Z,95591.91
2023-04-20T14:07:23.896Z,95587.75
2023-04-20T14:09:52.767Z,95590.31
2023-04-20T14:12:20.091Z,95582.31
2023-04-20T14:14:46.890Z,95578.16
2023-04-20T14:17:13.807Z,95576.44
2023-04-20T14:19:40.851Z,95576.94
2023-04-20T14:22:07.465Z,95565.31
2023-04-20T14:24:34.067Z,95565.78
2023-04-20T14:27:01.978Z,95570.78
2023-04-20T14:29:28.564Z,95568.16
2023-04-20T14:31:55.302Z,95566.38
2023-04-20T14:34:22.110Z,95567.81
2023-04-20T14:36:48.712Z,95566.00
2023-04-20T14:39:15.652Z,95562.97
2023-04-20T14:41:42.243Z,95546.09
2023-04-20T14:44:08.871Z,95555.13
2023-04-20T14:46:35.773Z,95552.56
2023-04-20T14:49:02.526Z,95552.16
2023-04-20T14:51:29.139Z,95547.69
2023-04-20T14:53:55.769Z,95541.16
2023-04-20T14:56:22.547Z,95539.56
2023-04-20T14:58:49.265Z,95538.41
2023-04-20T15:01:16.026Z,95550.41
2023-04-20T15:03:43.412Z,95533.22
2023-04-20T15:06:11.445Z,95536.72
2023-04-20T15:08:38.062Z,95532.47
2023-04-20T15:11:05.752Z,95528.75
2023-04-20T15:13:32.591Z,95532.13
2023-04-20T15:15:59.348Z,95536.38
2023-04-20T15:18:26.080Z,95532.09
2023-04-20T15:20:52.743Z,95529.25
2023-04-20T15:23:19.850Z,95532.28
2023-04-20T15:25:46.770Z,95535.47
2023-04-20T15:28:13.559Z,95527.03
2023-04-20T15:30:40.220Z,95523.03
2023-04-20T15:33:07.102Z,95521.56
2023-04-20T15:35:34.969Z,95523.38
2023-04-20T15:38:01.858Z,95523.88
2023-04-20T15:40:28.504Z,95523.19
2023-04-20T15:42:55.822Z,95518.00
2023-04-20T15:45:23.332Z,95528.88
2023-04-20T15:47:51.376Z,95527.41
2023-04-20T15:50:18.570Z,95532.28
2023-04-20T15:52:45.868Z,95522.69
2023-04-20T15:55:12.567Z,95525.66
2023-04-20T15:57:39.372Z,95525.47
2023-04-20T16:00:07.827Z,95522.63
2023-04-20T16:02:34.694Z,95533.09
2023-04-20T16:05:01.888Z,95524.69
2023-04-20T16:07:28.882Z,95531.84
2023-04-20T16:09:55.497Z,95536.00
2023-04-20T16:12:22.131Z,95534.88
2023-04-20T16:14:48.962Z,95527.25
2023-04-20T16:17:16.282Z,95535.41
2023-04-20T16:19:42.873Z,95530.09
2023-04-20T16:22:09.477Z,95531.69
2023-04-20T16:24:36.095Z,95531.13
2023-04-20T16:27:02.770Z,95537.97
2023-04-20T16:29:29.416Z,95527.72
2023-04-20T16:31:56.450Z,95532.44
2023-04-20T16:34:24.527Z,95534.59
2023-04-20T16:36:51.185Z,95533.34
2023-04-20T16:39:18.689Z,95531.22
2023-04-20T16:41:45.626Z,95527.94
2023-04-20T16:44:16.577Z,95538.88
2023-04-20T16:46:44.238Z,95536.50
2023-04-20T16:49:10.962Z,95541.09
2023-04-20T16:51:38.052Z,95542.78
2023-04-20T16:54:04.765Z,95546.00
2023-04-20T16:56:31.410Z,95546.44
2023-04-20T16:58:58.373Z,95546.22
2023-04-20T17:01:25.180Z,95555.00
2023-04-20T17:03:52.147Z,95557.25
2023-04-20T17:06:18.907Z,95559.28
2023-04-20T17:08:45.585Z,95562.09
2023-04-20T17:11:12.506Z,95566.50
2023-04-20T17:13:39.190Z,95566.34
2023-04-20T17:16:05.875Z,95568.72
2023-04-20T17:18:34.284Z,95567.84
2023-04-20T17:21:02.225Z,95576.44
2023-04-20T17:23:28.904Z,95575.56
2023-04-20T17:25:55.618Z,95570.25
2023-04-20T17:28:22.317Z,95574.88
2023-04-20T17:30:48.929Z,95581.13
2023-04-20T17:33:15.857Z,95598.78
2023-04-20T17:35:43.087Z,95594.78
2023-04-20T17:38:09.723Z,95592.84
2023-04-20T17:40:36.416Z,95584.88
2023-04-20T17:43:03.076Z,95590.56
2023-04-20T17:45:29.769Z,95586.38
2023-04-20T17:47:56.588Z,95590.13
2023-04-20T17:50:23.487Z,95591.31
2023-04-20T17:52:51.549Z,95600.72
2023-04-20T17:55:18.355Z,95604.34
2023-04-20T17:57:44.999Z,95601.47
2023-04-20T18:00:12.134Z,95604.69
2023-04-20T18:02:39.750Z,95603.56
2023-04-20T18:05:07.081Z,95609.06
2023-04-20T18:07:33.891Z,95599.69
2023-04-20T18:10:00.537Z,95610.50
2023-04-20T18:12:27.271Z,95612.09
2023-04-20T18:14:53.943Z,95615.78
2023-04-20T18:17:20.732Z,95611.13
2023-04-20T18:19:47.473Z,95604.34
2023-04-20T18:22:14.451Z,95622.44
2023-04-20T18:24:41.056Z,95622.22
2023-04-20T18:27:07.689Z,95623.84
2023-04-20T18:29:34.590Z,95635.13
2023-04-20T18:32:01.506Z,95628.97
2023-04-20T18:34:31.152Z,95638.72
2023-04-20T18:36:58.428Z,95622.56
2023-04-20T18:39:25.291Z,95628.19
2023-04-20T18:41:51.964Z,95635.31
2023-04-20T18:44:18.853Z,95629.56
2023-04-20T18:46:46.529Z,95636.59
2023-04-20T18:49:13.363Z,95643.84
2023-04-20T18:51:40.469Z,95642.25
2023-04-20T18:54:07.195Z,95646.22
2023-04-20T18:56:33.947Z,95642.31
2023-04-20T18:59:01.585Z,95638.84
2023-04-20T19:01:28.617Z,95642.31
2023-04-20T19:03:55.693Z,95636.13
2023-04-20T19:06:22.687Z,95643.63
2023-04-20T19:08:51.117Z,95644.41
2023-04-20T19:11:17.818Z,95657.72
2023-04-20T19:13:45.413Z,95653.63
2023-04-20T19:16:12.949Z,95643.81
2023-04-20T19:18:39.904Z,95646.88
2023-04-20T19:21:06.744Z,95655.47
2023-04-20T19:23:35.690Z,95669.09
2023-04-20T19:26:02.789Z,95663.72
2023-04-20T19:28:30.517Z,95659.81
2023-04-20T19:30:57.973Z,95656.00
2023-04-20T19:33:24.765Z,95662.56
2023-04-20T19:35:51.546Z,95679.47
2023-04-20T19:38:21.830Z,95671.06
2023-04-20T19:40:48.823Z,95672.31
2023-04-20T19:43:17.037Z,95668.56
2023-04-20T19:45:44.001Z,95676.03
2023-04-20T19:48:10.873Z,95673.31
2023-04-20T19:50:37.533Z,95664.16
2023-04-20T19:53:04.505Z,95671.09
2023-04-20T19:55:31.772Z,95671.09
2023-04-20T19:57:58.659Z,95669.22
2023-04-20T20:00:25.348Z,95669.16
2023-04-20T20:02:52.091Z,95664.41
2023-04-20T20:05:18.881Z,95670.13
2023-04-20T20:07:45.735Z,95670.47
2023-04-20T20:10:12.498Z,95667.22
2023-04-20T20:12:39.163Z,95672.22
2023-04-20T20:15:06.067Z,95689.22
2023-04-20T20:17:32.733Z,95685.03
2023-04-20T20:20:00.340Z,95681.34
2023-04-20T20:22:27.013Z,95688.78
2023-04-20T20:24:54.770Z,95680.13
2023-04-20T20:27:21.661Z,95685.63
2023-04-20T20:29:48.546Z,95688.88
2023-04-20T20:32:15.839Z,95689.72
2023-04-20T20:34:42.828Z,95691.81
2023-04-20T20:37:10.574Z,95691.13
2023-04-20T20:39:37.487Z,95688.78
2023-04-20T20:42:05.391Z,95693.28
2023-04-20T20:44:34.270Z,95691.28
2023-04-20T20:47:01.121Z,95684.19
2023-04-20T20:49:27.965Z,95692.78
2023-04-20T20:51:54.765Z,95702.34
2023-04-20T20:54:21.513Z,95692.53
2023-04-20T20:56:48.241Z,95691.13
2023-04-20T20:59:14.938Z,95695.59
2023-04-20T21:01:41.677Z,95688.34
2023-04-20T21:04:08.573Z,95687.81
2023-04-20T21:06:35.369Z,95693.97
2023-04-20T21:09:02.940Z,95691.34
2023-04-20T21:11:29.594Z,95691.63
2023-04-20T21:14:01.620Z,95693.59
2023-04-20T21:16:28.755Z,95704.34
2023-04-20T21:18:55.542Z,95694.00
2023-04-20T21:21:22.191Z,95707.50
2023-04-20T21:23:49.842Z,95709.69
2023-04-20T21:26:16.458Z,95709.50
2023-04-20T21:28:43.093Z,95711.28
2023-04-20T21:31:09.701Z,95710.78
2023-04-20T21:33:36.632Z,95718.44
2023-04-20T21:36:03.479Z,95724.59
2023-04-20T21:38:30.129Z,95715.84
2023-04-20T21:40:56.753Z,95721.94
2023-04-20T21:43:23.372Z,95724.91
2023-04-20T21:45:51.452Z,95722.13
2023-04-20T21:48:18.343Z,95726.47
2023-04-20T21:50:44.991Z,95730.97
2023-04-20T21:53:11.621Z,95730.38
2023-04-20T21:55:38.282Z,95733.25
2023-04-20T21:58:04.889Z,95739.38
2023-04-20T22:00:31.664Z,95738.28
2023-04-20T22:02:58.491Z,95750.25
2023-04-20T22:05:26.171Z,95748.50
2023-04-20T22:07:53.207Z,95747.72
2023-04-20T22:10:20.339Z,95749.16
2023-04-20T22:12:46.999Z,95750.94
2023-04-20T22:15:14.840Z,95746.53
2023-04-20T22:17:45.304Z,95753.69
2023-04-20T22:20:13.419Z,95757.84
2023-04-20T22:22:40.182Z,95764.94
2023-04-20T22:25:08.320Z,95761.72
2023-04-20T22:27:36.073Z,95772.44
2023-04-20T22:30:04.035Z,95774.97
2023-04-20T22:32:30.757Z,95780.56
2023-04-20T22:34:57.924Z,95775.25
2023-04-20T22:37:24.542Z,95774.09
2023-04-20T22:39:51.181Z,95790.75
2023-04-20T22:42:17.792Z,95780.03
2023-04-20T22:44:44.454Z,95788.59
2023-04-20T22:47:11.137Z,95793.91
2023-04-20T22:49:38.026Z,95785.53
2023-04-20T22:52:04.737Z,95799.13
2023-04-20T22:54:31.479Z,95803.66
2023-04-20T22:56:58.829Z,95807.66
2023-04-20T22:59:25.734Z,95805.22
2023-04-20T23:01:52.490Z,95804.91
2023-04-20T23:04:19.182Z,95811.41
2023-04-20T23:06:45.856Z,95813.06
2023-04-20T23:09:13.386Z,95812.56
2023-04-20T23:11:40.471Z,95808.38
2023-04-20T23:14:10.961Z,95817.84
2023-04-20T23:16:38.378Z,95817.22
2023-04-20T23:19:05.100Z,95820.19
2023-04-20T23:21:32.937Z,95815.25
2023-04-20T23:23:59.558Z,95813.16
2023-04-20T23:26:26.161Z,95814.16
2023-04-20T23:28:53.656Z,95817.88
2023-04-20T23:31:21.161Z,95820.31
2023-04-20T23:33:48.188Z,95824.09
2023-04-20T23:36:15.388Z,95820.19
2023-04-20T23:38:42.442Z,95821.84
2023-04-20T23:41:13.306Z,95820.41
2023-04-20T23:43:40.805Z,95814.78
2023-04-20T23:46:08.021Z,95813.00
2023-04-20T23:48:35.038Z,95820.31
2023-04-20T23:51:02.736Z,95815.19
2023-04-20T23:53:29.446Z,95811.56
2023-04-20T23:55:56.092Z,95821.25
2023-04-20T23:58:27.394Z,95820.66
